sensor_id;sensor_type;location;lat;lon;timestamp;pressure;altitude;pressure_sealevel;temperature;humidity
75192;BME280;63771;52.580;9.734;2023-05-02T00:01:53;101225.06;;;11.49;65.84
75192;BME280;63771;52.580;9.734;2023-05-02T00:04:18;101229.41;;;11.50;65.77
75192;BME280;63771;52.580;9.734;2023-05-02T00:06:43;101229.41;;;11.50;65.60
75192;BME280;63771;52.580;9.734;2023-05-02T00:09:11;101231.31;;;11.53;65.65
75192;BME280;63771;52.580;9.734;2023-05-02T00:11:36;101230.41;;;11.53;65.84
75192;BME280;63771;52.580;9.734;2023-05-02T00:14:01;101233.25;;;11.56;66.03
75192;BME280;63771;52.580;9.734;2023-05-02T00:16:27;101232.50;;;11.57;66.22
75192;BME280;63771;52.580;9.734;2023-05-02T00:18:52;101230.94;;;11.59;65.82
75192;BME280;63771;52.580;9.734;2023-05-02T00:21:17;101232.75;;;11.60;65.99
75192;BME280;63771;52.580;9.734;2023-05-02T00:23:43;101238.88;;;11.52;66.40
75192;BME280;63771;52.580;9.734;2023-05-02T00:26:08;101237.56;;;11.46;66.28
75192;BME280;63771;52.580;9.734;2023-05-02T00:28:34;101232.75;;;11.49;66.21
75192;BME280;63771;52.580;9.734;2023-05-02T00:31:00;101227.75;;;11.51;66.46
75192;BME280;63771;52.580;9.734;2023-05-02T00:33:25;101230.94;;;11.48;66.97
75192;BME280;63771;52.580;9.734;2023-05-02T00:35:50;101230.41;;;11.53;67.02
75192;BME280;63771;52.580;9.734;2023-05-02T00:38:16;101230.81;;;11.57;66.67
75192;BME280;63771;52.580;9.734;2023-05-02T00:40:46;101232.22;;;11.54;67.41
75192;BME280;63771;52.580;9.734;2023-05-02T00:43:12;101230.53;;;11.44;67.41
75192;BME280;63771;52.580;9.734;2023-05-02T00:45:38;101232.69;;;11.39;67.97
75192;BME280;63771;52.580;9.734;2023-05-02T00:48:08;101232.41;;;11.36;68.25
75192;BME280;63771;52.580;9.734;2023-05-02T00:50:37;101232.53;;;11.28;68.83
75192;BME280;63771;52.580;9.734;2023-05-02T00:53:03;101242.47;;;11.24;69.04
75192;BME280;63771;52.580;9.734;2023-05-02T00:55:30;101245.44;;;11.29;68.45
75192;BME280;63771;52.580;9.734;2023-05-02T00:57:56;101240.56;;;11.32;69.03
75192;BME280;63771;52.580;9.734;2023-05-02T01:00:29;101239.69;;;11.32;69.06
75192;BME280;63771;52.580;9.734;2023-05-02T01:03:06;101245.81;;;11.23;69.64
75192;BME280;63771;52.580;9.734;2023-05-02T01:05:45;101246.22;;;11.28;69.42
75192;BME280;63771;52.580;9.734;2023-05-02T01:08:19;101239.81;;;11.23;70.20
75192;BME280;63771;52.580;9.734;2023-05-02T01:11:30;101246.41;;;11.21;70.24
75192;BME280;63771;52.580;9.734;2023-05-02T01:13:58;101243.59;;;11.18;70.78
75192;BME280;63771;52.580;9.734;2023-05-02T01:16:26;101240.78;;;11.15;71.59
75192;BME280;63771;52.580;9.734;2023-05-02T01:18:53;101243.31;;;11.15;72.01
75192;BME280;63771;52.580;9.734;2023-05-02T01:21:18;101244.34;;;11.17;71.78
75192;BME280;63771;52.580;9.734;2023-05-02T01:26:16;101247.06;;;11.18;72.28
75192;BME280;63771;52.580;9.734;2023-05-02T01:28:59;101250.16;;;11.06;72.66
75192;BME280;63771;52.580;9.734;2023-05-02T01:31:28;101248.31;;;10.94;73.10
75192;BME280;63771;52.580;9.734;2023-05-02T01:33:55;101258.06;;;10.98;73.48
75192;BME280;63771;52.580;9.734;2023-05-02T01:36:26;101254.50;;;10.96;73.49
75192;BME280;63771;52.580;9.734;2023-05-02T01:38:53;101256.28;;;10.97;73.61
75192;BME280;63771;52.580;9.734;2023-05-02T01:41:20;101252.66;;;10.95;73.44
75192;BME280;63771;52.580;9.734;2023-05-02T01:43:47;101268.50;;;10.91;74.25
75192;BME280;63771;52.580;9.734;2023-05-02T01:46:13;101260.31;;;10.95;74.16
75192;BME280;63771;52.580;9.734;2023-05-02T01:48:41;101258.53;;;10.94;73.86
75192;BME280;63771;52.580;9.734;2023-05-02T01:51:08;101266.97;;;10.93;74.37
75192;BME280;63771;52.580;9.734;2023-05-02T01:53:37;101277.31;;;10.95;73.98
75192;BME280;63771;52.580;9.734;2023-05-02T01:56:03;101275.88;;;10.88;74.66
75192;BME280;63771;52.580;9.734;2023-05-02T01:58:31;101287.44;;;10.85;74.86
75192;BME280;63771;52.580;9.734;2023-05-02T02:00:58;101278.34;;;10.78;75.41
75192;BME280;63771;52.580;9.734;2023-05-02T02:03:26;101294.84;;;10.82;75.35
75192;BME280;63771;52.580;9.734;2023-05-02T02:05:53;101300.56;;;10.79;76.45
75192;BME280;63771;52.580;9.734;2023-05-02T02:08:19;101303.59;;;10.75;77.11
75192;BME280;63771;52.580;9.734;2023-05-02T02:10:48;101306.66;;;10.71;77.64
75192;BME280;63771;52.580;9.734;2023-05-02T02:13:25;101300.00;;;10.73;77.86
75192;BME280;63771;52.580;9.734;2023-05-02T02:15:58;101297.34;;;10.71;78.41
75192;BME280;63771;52.580;9.734;2023-05-02T02:18:24;101300.78;;;10.72;79.05
75192;BME280;63771;52.580;9.734;2023-05-02T02:20:52;101308.09;;;10.78;77.67
75192;BME280;63771;52.580;9.734;2023-05-02T02:23:20;101303.88;;;10.78;78.84
75192;BME280;63771;52.580;9.734;2023-05-02T02:25:51;101299.31;;;10.84;78.38
75192;BME280;63771;52.580;9.734;2023-05-02T02:28:18;101292.72;;;10.86;77.96
75192;BME280;63771;52.580;9.734;2023-05-02T02:30:43;101302.41;;;10.90;78.21
75192;BME280;63771;52.580;9.734;2023-05-02T02:33:09;101297.81;;;10.86;79.26
75192;BME280;63771;52.580;9.734;2023-05-02T02:35:41;101298.84;;;10.88;79.07
75192;BME280;63771;52.580;9.734;2023-05-02T02:38:22;101303.72;;;10.95;78.50
75192;BME280;63771;52.580;9.734;2023-05-02T02:40:58;101305.19;;;11.02;77.71
75192;BME280;63771;52.580;9.734;2023-05-02T02:43:37;101307.47;;;10.99;78.67
75192;BME280;63771;52.580;9.734;2023-05-02T02:46:28;101300.69;;;11.00;78.61
75192;BME280;63771;52.580;9.734;2023-05-02T02:49:22;101305.31;;;11.04;78.83
75192;BME280;63771;52.580;9.734;2023-05-02T02:52:29;101313.94;;;10.95;78.66
75192;BME280;63771;52.580;9.734;2023-05-02T02:55:10;101320.28;;;10.90;79.89
75192;BME280;63771;52.580;9.734;2023-05-02T02:57:41;101324.50;;;10.90;79.80
75192;BME280;63771;52.580;9.734;2023-05-02T03:00:19;101319.56;;;10.91;80.37
75192;BME280;63771;52.580;9.734;2023-05-02T03:02:46;101329.91;;;10.93;79.84
75192;BME280;63771;52.580;9.734;2023-05-02T03:05:12;101335.91;;;10.93;80.07
75192;BME280;63771;52.580;9.734;2023-05-02T03:07:38;101328.47;;;10.86;81.01
75192;BME280;63771;52.580;9.734;2023-05-02T03:10:04;101330.72;;;10.83;81.16
75192;BME280;63771;52.580;9.734;2023-05-02T03:12:30;101338.38;;;10.83;81.63
75192;BME280;63771;52.580;9.734;2023-05-02T03:15:16;101342.88;;;10.86;81.33
75192;BME280;63771;52.580;9.734;2023-05-02T03:17:47;101335.06;;;10.84;81.59
75192;BME280;63771;52.580;9.734;2023-05-02T03:20:12;101342.88;;;10.86;81.62
75192;BME280;63771;52.580;9.734;2023-05-02T03:22:37;101350.91;;;10.90;81.44
75192;BME280;63771;52.580;9.734;2023-05-02T03:25:03;101349.44;;;10.92;81.51
75192;BME280;63771;52.580;9.734;2023-05-02T03:27:28;101351.09;;;10.92;81.37
75192;BME280;63771;52.580;9.734;2023-05-02T03:29:56;101346.41;;;10.96;81.53
75192;BME280;63771;52.580;9.734;2023-05-02T03:32:21;101350.56;;;10.96;81.31
75192;BME280;63771;52.580;9.734;2023-05-02T03:34:46;101353.00;;;10.94;81.88
75192;BME280;63771;52.580;9.734;2023-05-02T03:37:11;101357.09;;;10.92;82.24
75192;BME280;63771;52.580;9.734;2023-05-02T03:39:37;101352.22;;;10.95;82.03
75192;BME280;63771;52.580;9.734;2023-05-02T03:42:02;101362.63;;;10.97;82.17
75192;BME280;63771;52.580;9.734;2023-05-02T03:44:28;101363.75;;;11.01;82.15
75192;BME280;63771;52.580;9.734;2023-05-02T03:46:53;101364.41;;;10.98;81.57
75192;BME280;63771;52.580;9.734;2023-05-02T03:49:18;101370.88;;;10.94;82.94
75192;BME280;63771;52.580;9.734;2023-05-02T03:51:44;101367.28;;;10.92;83.03
75192;BME280;63771;52.580;9.734;2023-05-02T03:54:09;101369.22;;;10.95;82.96
75192;BME280;63771;52.580;9.734;2023-05-02T03:56:34;101371.94;;;10.96;83.04
75192;BME280;63771;52.580;9.734;2023-05-02T03:59:01;101372.66;;;10.95;82.81
75192;BME280;63771;52.580;9.734;2023-05-02T04:01:26;101377.03;;;10.96;83.33
75192;BME280;63771;52.580;9.734;2023-05-02T04:03:52;101379.78;;;10.89;84.25
75192;BME280;63771;52.580;9.734;2023-05-02T04:06:17;101384.63;;;10.86;84.71
75192;BME280;63771;52.580;9.734;2023-05-02T04:08:42;101393.78;;;10.84;85.24
75192;BME280;63771;52.580;9.734;2023-05-02T04:11:08;101393.97;;;10.77;85.63
75192;BME280;63771;52.580;9.734;2023-05-02T04:13:33;101399.69;;;10.75;85.72
75192;BME280;63771;52.580;9.734;2023-05-02T04:15:58;101404.44;;;10.80;85.45
75192;BME280;63771;52.580;9.734;2023-05-02T04:18:23;101408.09;;;10.74;86.03
75192;BME280;63771;52.580;9.734;2023-05-02T04:20:49;101403.63;;;10.71;85.89
75192;BME280;63771;52.580;9.734;2023-05-02T04:23:14;101409.00;;;10.74;86.08
75192;BME280;63771;52.580;9.734;2023-05-02T04:25:40;101430.03;;;10.71;86.60
75192;BME280;63771;52.580;9.734;2023-05-02T04:28:05;101428.09;;;10.69;86.37
75192;BME280;63771;52.580;9.734;2023-05-02T04:30:31;101428.84;;;10.68;85.79
75192;BME280;63771;52.580;9.734;2023-05-02T04:32:56;101440.84;;;10.69;85.98
75192;BME280;63771;52.580;9.734;2023-05-02T04:35:22;101445.63;;;10.75;85.19
75192;BME280;63771;52.580;9.734;2023-05-02T04:37:47;101448.50;;;10.69;86.10
75192;BME280;63771;52.580;9.734;2023-05-02T04:40:12;101449.25;;;10.68;85.72
75192;BME280;63771;52.580;9.734;2023-05-02T04:42:38;101451.06;;;10.69;85.75
75192;BME280;63771;52.580;9.734;2023-05-02T04:45:04;101464.31;;;10.65;85.09
75192;BME280;63771;52.580;9.734;2023-05-02T04:47:29;101470.88;;;10.71;83.70
75192;BME280;63771;52.580;9.734;2023-05-02T04:49:54;101485.47;;;10.64;84.58
75192;BME280;63771;52.580;9.734;2023-05-02T04:52:20;101491.22;;;10.53;84.15
75192;BME280;63771;52.580;9.734;2023-05-02T04:54:45;101493.19;;;10.38;84.29
75192;BME280;63771;52.580;9.734;2023-05-02T04:57:11;101503.59;;;10.13;84.80
75192;BME280;63771;52.580;9.734;2023-05-02T04:59:36;101510.66;;;9.99;84.58
75192;BME280;63771;52.580;9.734;2023-05-02T05:02:02;101513.34;;;9.91;84.48
75192;BME280;63771;52.580;9.734;2023-05-02T05:04:27;101523.56;;;9.91;83.81
75192;BME280;63771;52.580;9.734;2023-05-02T05:06:53;101517.00;;;9.76;83.39
75192;BME280;63771;52.580;9.734;2023-05-02T05:09:18;101551.13;;;9.70;83.80
75192;BME280;63771;52.580;9.734;2023-05-02T05:11:44;101552.19;;;9.63;82.79
75192;BME280;63771;52.580;9.734;2023-05-02T05:14:10;101560.56;;;9.53;82.46
75192;BME280;63771;52.580;9.734;2023-05-02T05:16:36;101555.44;;;9.45;82.36
75192;BME280;63771;52.580;9.734;2023-05-02T05:19:01;101563.06;;;9.27;81.27
75192;BME280;63771;52.580;9.734;2023-05-02T05:21:28;101566.69;;;9.29;81.90
75192;BME280;63771;52.580;9.734;2023-05-02T05:23:53;101576.69;;;9.19;82.02
75192;BME280;63771;52.580;9.734;2023-05-02T05:26:18;101582.47;;;9.09;82.06
75192;BME280;63771;52.580;9.734;2023-05-02T05:28:45;101582.44;;;9.01;81.96
75192;BME280;63771;52.580;9.734;2023-05-02T05:31:12;101594.13;;;8.99;82.07
75192;BME280;63771;52.580;9.734;2023-05-02T05:33:38;101596.63;;;8.90;82.24
75192;BME280;63771;52.580;9.734;2023-05-02T05:36:08;101608.44;;;8.89;83.11
75192;BME280;63771;52.580;9.734;2023-05-02T05:38:34;101613.66;;;8.82;83.41
75192;BME280;63771;52.580;9.734;2023-05-02T05:40:59;101608.25;;;8.79;83.83
75192;BME280;63771;52.580;9.734;2023-05-02T05:43:25;101616.50;;;8.85;83.46
75192;BME280;63771;52.580;9.734;2023-05-02T05:45:52;101613.19;;;8.86;83.78
75192;BME280;63771;52.580;9.734;2023-05-02T05:48:17;101622.53;;;8.95;83.00
75192;BME280;63771;52.580;9.734;2023-05-02T05:50:43;101617.31;;;8.93;82.82
75192;BME280;63771;52.580;9.734;2023-05-02T05:53:08;101622.13;;;8.99;82.17
75192;BME280;63771;52.580;9.734;2023-05-02T05:55:33;101621.38;;;9.00;80.57
75192;BME280;63771;52.580;9.734;2023-05-02T05:57:59;101626.47;;;9.00;79.59
75192;BME280;63771;52.580;9.734;2023-05-02T06:00:24;101636.94;;;9.03;79.65
75192;BME280;63771;52.580;9.734;2023-05-02T06:02:49;101640.84;;;9.08;80.09
75192;BME280;63771;52.580;9.734;2023-05-02T06:05:15;101648.94;;;9.04;79.01
75192;BME280;63771;52.580;9.734;2023-05-02T06:07:40;101655.50;;;9.02;77.76
75192;BME280;63771;52.580;9.734;2023-05-02T06:10:06;101660.31;;;9.07;78.15
75192;BME280;63771;52.580;9.734;2023-05-02T06:12:31;101668.66;;;8.98;77.72
75192;BME280;63771;52.580;9.734;2023-05-02T06:14:56;101672.06;;;8.89;77.19
75192;BME280;63771;52.580;9.734;2023-05-02T06:17:22;101685.63;;;8.81;76.53
75192;BME280;63771;52.580;9.734;2023-05-02T06:19:47;101675.44;;;8.81;75.92
75192;BME280;63771;52.580;9.734;2023-05-02T06:22:12;101690.13;;;8.84;75.74
75192;BME280;63771;52.580;9.734;2023-05-02T06:24:38;101686.06;;;8.77;74.52
75192;BME280;63771;52.580;9.734;2023-05-02T06:27:03;101691.56;;;8.73;74.32
75192;BME280;63771;52.580;9.734;2023-05-02T06:29:28;101697.06;;;8.69;75.10
75192;BME280;63771;52.580;9.734;2023-05-02T06:31:54;101708.13;;;8.70;74.94
75192;BME280;63771;52.580;9.734;2023-05-02T06:34:20;101705.75;;;8.71;75.00
75192;BME280;63771;52.580;9.734;2023-05-02T06:36:46;101707.56;;;8.72;75.14
75192;BME280;63771;52.580;9.734;2023-05-02T06:39:11;101701.63;;;8.80;76.01
75192;BME280;63771;52.580;9.734;2023-05-02T06:41:37;101709.47;;;8.91;74.86
75192;BME280;63771;52.580;9.734;2023-05-02T06:44:02;101715.63;;;8.93;73.55
75192;BME280;63771;52.580;9.734;2023-05-02T06:46:28;101730.41;;;9.04;73.48
75192;BME280;63771;52.580;9.734;2023-05-02T06:48:54;101733.66;;;9.03;73.49
75192;BME280;63771;52.580;9.734;2023-05-02T06:51:20;101732.59;;;9.01;72.45
75192;BME280;63771;52.580;9.734;2023-05-02T06:53:46;101740.09;;;8.99;72.73
75192;BME280;63771;52.580;9.734;2023-05-02T06:56:11;101732.03;;;9.03;72.79
75192;BME280;63771;52.580;9.734;2023-05-02T06:58:37;101734.31;;;9.09;72.57
75192;BME280;63771;52.580;9.734;2023-05-02T07:01:02;101749.13;;;9.13;71.14
75192;BME280;63771;52.580;9.734;2023-05-02T07:03:27;101746.56;;;9.04;70.28
75192;BME280;63771;52.580;9.734;2023-05-02T07:05:53;101755.09;;;9.05;70.33
75192;BME280;63771;52.580;9.734;2023-05-02T07:08:18;101759.28;;;9.04;70.88
75192;BME280;63771;52.580;9.734;2023-05-02T07:10:45;101759.03;;;9.10;70.26
75192;BME280;63771;52.580;9.734;2023-05-02T07:13:10;101764.88;;;9.09;69.44
75192;BME280;63771;52.580;9.734;2023-05-02T07:15:36;101758.69;;;9.07;69.25
75192;BME280;63771;52.580;9.734;2023-05-02T07:18:01;101767.56;;;9.10;69.93
75192;BME280;63771;52.580;9.734;2023-05-02T07:20:26;101776.50;;;9.07;69.61
75192;BME280;63771;52.580;9.734;2023-05-02T07:22:52;101782.84;;;9.10;68.92
75192;BME280;63771;52.580;9.734;2023-05-02T07:25:18;101779.69;;;9.13;68.97
75192;BME280;63771;52.580;9.734;2023-05-02T07:27:43;101781.34;;;9.12;67.52
75192;BME280;63771;52.580;9.734;2023-05-02T07:30:08;101796.31;;;9.09;68.06
75192;BME280;63771;52.580;9.734;2023-05-02T07:32:34;101789.97;;;9.06;68.69
75192;BME280;63771;52.580;9.734;2023-05-02T07:34:59;101790.72;;;9.05;67.75
75192;BME280;63771;52.580;9.734;2023-05-02T07:37:25;101796.13;;;9.08;67.92
75192;BME280;63771;52.580;9.734;2023-05-02T07:39:51;101804.09;;;9.11;68.01
75192;BME280;63771;52.580;9.734;2023-05-02T07:42:16;101809.19;;;9.11;67.79
75192;BME280;63771;52.580;9.734;2023-05-02T07:44:42;101812.06;;;9.14;67.44
75192;BME280;63771;52.580;9.734;2023-05-02T07:47:07;101808.84;;;9.08;66.89
75192;BME280;63771;52.580;9.734;2023-05-02T07:49:33;101824.81;;;9.14;65.65
75192;BME280;63771;52.580;9.734;2023-05-02T07:51:58;101814.28;;;9.11;66.04
75192;BME280;63771;52.580;9.734;2023-05-02T07:54:23;101826.91;;;9.18;66.19
75192;BME280;63771;52.580;9.734;2023-05-02T07:56:50;101827.81;;;9.19;65.74
75192;BME280;63771;52.580;9.734;2023-05-02T07:59:15;101833.97;;;9.21;66.88
75192;BME280;63771;52.580;9.734;2023-05-02T08:01:41;101848.16;;;9.19;65.89
75192;BME280;63771;52.580;9.734;2023-05-02T08:04:07;101841.88;;;9.15;65.34
75192;BME280;63771;52.580;9.734;2023-05-02T08:06:34;101834.31;;;9.08;64.66
75192;BME280;63771;52.580;9.734;2023-05-02T08:08:59;101848.88;;;9.09;64.45
75192;BME280;63771;52.580;9.734;2023-05-02T08:11:25;101834.31;;;9.08;65.06
75192;BME280;63771;52.580;9.734;2023-05-02T08:13:51;101844.34;;;9.06;65.13
75192;BME280;63771;52.580;9.734;2023-05-02T08:16:17;101855.00;;;9.11;65.47
75192;BME280;63771;52.580;9.734;2023-05-02T08:18:43;101863.00;;;9.14;64.81
75192;BME280;63771;52.580;9.734;2023-05-02T08:21:08;101866.00;;;9.03;64.11
75192;BME280;63771;52.580;9.734;2023-05-02T08:23:34;101880.81;;;8.98;64.43
75192;BME280;63771;52.580;9.734;2023-05-02T08:25:59;101874.50;;;8.95;64.59
75192;BME280;63771;52.580;9.734;2023-05-02T08:28:25;101881.38;;;8.96;64.01
75192;BME280;63771;52.580;9.734;2023-05-02T08:30:50;101881.88;;;9.00;64.62
75192;BME280;63771;52.580;9.734;2023-05-02T08:33:16;101887.78;;;9.08;65.04
75192;BME280;63771;52.580;9.734;2023-05-02T08:35:41;101889.50;;;9.16;65.60
75192;BME280;63771;52.580;9.734;2023-05-02T08:38:07;101891.94;;;9.23;64.91
75192;BME280;63771;52.580;9.734;2023-05-02T08:40:36;101902.22;;;9.16;63.10
75192;BME280;63771;52.580;9.734;2023-05-02T08:43:02;101906.56;;;9.17;63.79
75192;BME280;63771;52.580;9.734;2023-05-02T08:45:33;101905.69;;;9.17;64.34
75192;BME280;63771;52.580;9.734;2023-05-02T08:48:04;101919.53;;;9.27;64.09
75192;BME280;63771;52.580;9.734;2023-05-02T08:50:33;101917.66;;;9.18;62.20
75192;BME280;63771;52.580;9.734;2023-05-02T08:53:03;101915.47;;;9.05;61.00
75192;BME280;63771;52.580;9.734;2023-05-02T08:55:29;101916.13;;;9.11;62.68
75192;BME280;63771;52.580;9.734;2023-05-02T08:57:56;101921.09;;;9.18;62.15
75192;BME280;63771;52.580;9.734;2023-05-02T09:00:22;101924.63;;;9.27;62.18
75192;BME280;63771;52.580;9.734;2023-05-02T09:05:38;101932.50;;;9.37;60.06
75192;BME280;63771;52.580;9.734;2023-05-02T09:08:05;101943.44;;;9.36;60.15
75192;BME280;63771;52.580;9.734;2023-05-02T09:10:33;101937.59;;;9.37;60.23
75192;BME280;63771;52.580;9.734;2023-05-02T09:13:38;101944.50;;;9.38;59.22
75192;BME280;63771;52.580;9.734;2023-05-02T09:16:08;101952.59;;;9.34;58.84
75192;BME280;63771;52.580;9.734;2023-05-02T09:18:44;101944.25;;;9.28;59.21
75192;BME280;63771;52.580;9.734;2023-05-02T09:21:15;101942.31;;;9.26;60.42
75192;BME280;63771;52.580;9.734;2023-05-02T09:23:51;101958.47;;;9.42;60.51
75192;BME280;63771;52.580;9.734;2023-05-02T09:26:29;101962.25;;;9.46;58.54
75192;BME280;63771;52.580;9.734;2023-05-02T09:28:57;101963.41;;;9.40;58.08
75192;BME280;63771;52.580;9.734;2023-05-02T09:31:28;101959.72;;;9.46;59.26
75192;BME280;63771;52.580;9.734;2023-05-02T09:34:16;101959.47;;;9.51;59.40
75192;BME280;63771;52.580;9.734;2023-05-02T09:36:44;101957.56;;;9.57;59.67
75192;BME280;63771;52.580;9.734;2023-05-02T09:39:11;101957.56;;;9.57;58.84
75192;BME280;63771;52.580;9.734;2023-05-02T09:41:45;101960.47;;;9.69;59.92
75192;BME280;63771;52.580;9.734;2023-05-02T09:44:18;101973.38;;;9.71;58.19
75192;BME280;63771;52.580;9.734;2023-05-02T09:46:49;101968.47;;;9.72;58.59
75192;BME280;63771;52.580;9.734;2023-05-02T09:49:15;101974.50;;;9.81;58.48
75192;BME280;63771;52.580;9.734;2023-05-02T09:51:43;101972.22;;;9.76;57.25
75192;BME280;63771;52.580;9.734;2023-05-02T09:54:08;101983.50;;;9.78;58.46
75192;BME280;63771;52.580;9.734;2023-05-02T09:56:53;101977.16;;;9.74;57.11
75192;BME280;63771;52.580;9.734;2023-05-02T09:59:22;101983.75;;;9.72;57.07
75192;BME280;63771;52.580;9.734;2023-05-02T10:01:59;101992.78;;;9.77;56.85
75192;BME280;63771;52.580;9.734;2023-05-02T10:04:25;101989.50;;;9.78;56.81
75192;BME280;63771;52.580;9.734;2023-05-02T10:06:52;101994.66;;;9.87;57.17
75192;BME280;63771;52.580;9.734;2023-05-02T10:09:19;101994.47;;;9.85;56.97
75192;BME280;63771;52.580;9.734;2023-05-02T10:11:45;101997.38;;;9.88;56.26
75192;BME280;63771;52.580;9.734;2023-05-02T10:14:11;102003.09;;;9.94;56.50
75192;BME280;63771;52.580;9.734;2023-05-02T10:16:51;102020.59;;;9.91;55.81
75192;BME280;63771;52.580;9.734;2023-05-02T10:19:23;102011.69;;;9.79;55.47
75192;BME280;63771;52.580;9.734;2023-05-02T10:21:51;102009.25;;;9.72;54.92
75192;BME280;63771;52.580;9.734;2023-05-02T10:24:18;102014.47;;;9.74;55.18
75192;BME280;63771;52.580;9.734;2023-05-02T10:26:45;102008.81;;;9.76;55.59
75192;BME280;63771;52.580;9.734;2023-05-02T10:29:11;102014.22;;;9.79;55.97
75192;BME280;63771;52.580;9.734;2023-05-02T10:31:36;102016.59;;;9.93;56.70
75192;BME280;63771;52.580;9.734;2023-05-02T10:34:03;102020.19;;;9.96;54.39
75192;BME280;63771;52.580;9.734;2023-05-02T10:36:30;102007.88;;;9.91;53.73
75192;BME280;63771;52.580;9.734;2023-05-02T10:38:57;102009.91;;;10.03;55.49
75192;BME280;63771;52.580;9.734;2023-05-02T10:41:28;102012.09;;;10.15;55.50
75192;BME280;63771;52.580;9.734;2023-05-02T10:43:55;102009.69;;;10.17;52.89
75192;BME280;63771;52.580;9.734;2023-05-02T10:49:00;102022.75;;;10.36;52.81
75192;BME280;63771;52.580;9.734;2023-05-02T10:51:27;102018.06;;;10.32;51.01
75192;BME280;63771;52.580;9.734;2023-05-02T10:59:28;102023.31;;;10.58;51.08
75192;BME280;63771;52.580;9.734;2023-05-02T11:01:53;102020.47;;;10.55;49.82
75192;BME280;63771;52.580;9.734;2023-05-02T11:04:19;102027.84;;;10.60;50.08
75192;BME280;63771;52.580;9.734;2023-05-02T11:11:49;102011.53;;;10.76;51.64
75192;BME280;63771;52.580;9.734;2023-05-02T11:19:24;102025.97;;;10.84;51.41
75192;BME280;63771;52.580;9.734;2023-05-02T11:21:50;102026.13;;;10.85;51.05
75192;BME280;63771;52.580;9.734;2023-05-02T11:24:39;102035.28;;;10.83;51.04
75192;BME280;63771;52.580;9.734;2023-05-02T11:27:41;102037.44;;;10.63;49.79
75192;BME280;63771;52.580;9.734;2023-05-02T11:30:08;102037.16;;;10.68;51.11
75192;BME280;63771;52.580;9.734;2023-05-02T11:37:42;102046.53;;;10.52;51.19
75192;BME280;63771;52.580;9.734;2023-05-02T11:40:12;102051.44;;;10.42;50.35
75192;BME280;63771;52.580;9.734;2023-05-02T11:42:37;102047.50;;;10.37;51.05
75192;BME280;63771;52.580;9.734;2023-05-02T11:45:03;102057.84;;;10.38;50.99
75192;BME280;63771;52.580;9.734;2023-05-02T11:47:31;102052.53;;;10.44;51.76
75192;BME280;63771;52.580;9.734;2023-05-02T11:49:57;102055.91;;;10.60;51.92
75192;BME280;63771;52.580;9.734;2023-05-02T11:52:24;102053.50;;;10.62;51.89
75192;BME280;63771;52.580;9.734;2023-05-02T11:54:53;102063.88;;;10.63;51.70
75192;BME280;63771;52.580;9.734;2023-05-02T11:57:20;102064.75;;;10.64;52.03
75192;BME280;63771;52.580;9.734;2023-05-02T11:59:53;102084.41;;;10.56;52.19
75192;BME280;63771;52.580;9.734;2023-05-02T12:02:34;102067.44;;;10.57;53.20
75192;BME280;63771;52.580;9.734;2023-05-02T12:05:01;102067.91;;;10.61;52.16
75192;BME280;63771;52.580;9.734;2023-05-02T12:07:44;102076.75;;;10.56;51.23
75192;BME280;63771;52.580;9.734;2023-05-02T12:10:10;102071.16;;;10.52;51.86
75192;BME280;63771;52.580;9.734;2023-05-02T12:12:36;102075.22;;;10.50;51.61
75192;BME280;63771;52.580;9.734;2023-05-02T12:15:03;102077.91;;;10.51;50.69
75192;BME280;63771;52.580;9.734;2023-05-02T12:17:30;102077.22;;;10.61;52.65
75192;BME280;63771;52.580;9.734;2023-05-02T12:19:56;102078.59;;;10.66;49.51
75192;BME280;63771;52.580;9.734;2023-05-02T12:22:22;102069.66;;;10.78;51.53
75192;BME280;63771;52.580;9.734;2023-05-02T12:24:48;102080.38;;;10.91;51.78
75192;BME280;63771;52.580;9.734;2023-05-02T12:27:15;102079.50;;;11.00;50.83
75192;BME280;63771;52.580;9.734;2023-05-02T12:29:45;102076.66;;;11.05;50.23
75192;BME280;63771;52.580;9.734;2023-05-02T12:32:11;102076.38;;;11.11;52.06
75192;BME280;63771;52.580;9.734;2023-05-02T12:34:38;102070.78;;;10.97;50.78
75192;BME280;63771;52.580;9.734;2023-05-02T12:37:04;102068.53;;;11.01;50.78
75192;BME280;63771;52.580;9.734;2023-05-02T12:39:40;102091.09;;;11.05;52.47
75192;BME280;63771;52.580;9.734;2023-05-02T12:42:10;102086.59;;;11.02;51.46
75192;BME280;63771;52.580;9.734;2023-05-02T12:44:37;102094.25;;;11.11;51.40
75192;BME280;63771;52.580;9.734;2023-05-02T12:47:03;102096.38;;;11.15;48.88
75192;BME280;63771;52.580;9.734;2023-05-02T12:49:29;102095.63;;;11.16;49.16
75192;BME280;63771;52.580;9.734;2023-05-02T12:51:54;102092.97;;;11.23;50.73
75192;BME280;63771;52.580;9.734;2023-05-02T12:54:20;102108.31;;;11.32;49.07
75192;BME280;63771;52.580;9.734;2023-05-02T12:56:45;102094.66;;;11.40;50.06
75192;BME280;63771;52.580;9.734;2023-05-02T13:01:50;102100.16;;;11.27;49.43
75192;BME280;63771;52.580;9.734;2023-05-02T13:04:15;102105.13;;;11.26;49.72
75192;BME280;63771;52.580;9.734;2023-05-02T13:06:41;102108.13;;;11.21;49.98
75192;BME280;63771;52.580;9.734;2023-05-02T13:09:06;102119.38;;;11.15;48.21
75192;BME280;63771;52.580;9.734;2023-05-02T13:11:31;102107.94;;;11.11;48.59
75192;BME280;63771;52.580;9.734;2023-05-02T13:13:57;102113.22;;;11.13;49.61
75192;BME280;63771;52.580;9.734;2023-05-02T13:16:24;102125.72;;;11.18;49.67
75192;BME280;63771;52.580;9.734;2023-05-02T13:18:50;102116.09;;;11.24;48.66
75192;BME280;63771;52.580;9.734;2023-05-02T13:21:15;102111.44;;;11.20;50.47
75192;BME280;63771;52.580;9.734;2023-05-02T13:23:41;102123.91;;;11.17;50.08
75192;BME280;63771;52.580;9.734;2023-05-02T13:26:08;102122.81;;;11.07;51.45
75192;BME280;63771;52.580;9.734;2023-05-02T13:28:33;102130.72;;;11.01;51.79
75192;BME280;63771;52.580;9.734;2023-05-02T13:30:59;102137.28;;;10.90;52.08